createdAt,value
2018-04-16T00:00:20.557Z,5.18
2018-04-16T00:02:49.014Z,5.40
2018-04-16T00:05:16.509Z,4.70
2018-04-16T00:07:43.977Z,5.33
2018-04-16T00:10:18.652Z,6.17
2018-04-16T00:12:46.099Z,4.60
2018-04-16T00:15:13.956Z,5.55
2018-04-16T00:17:41.451Z,5.72
2018-04-16T00:20:08.932Z,5.60
2018-04-16T00:22:36.380Z,6.73
2018-04-16T00:25:03.917Z,5.60
2018-04-16T00:27:31.373Z,6.20
2018-04-16T00:29:59.600Z,5.90
2018-04-16T00:32:33.597Z,5.90
2018-04-16T00:35:06.817Z,6.90
2018-04-16T00:37:40.086Z,6.25
2018-04-16T00:40:13.120Z,6.00
2018-04-16T00:42:47.281Z,5.52
2018-04-16T00:45:20.434Z,6.78
2018-04-16T00:47:53.645Z,6.23
2018-04-16T00:50:26.781Z,5.90
2018-04-16T00:52:59.767Z,6.60
2018-04-16T00:55:32.808Z,7.37
2018-04-16T00:58:05.981Z,6.55
2018-04-16T01:00:39.146Z,7.17
2018-04-16T01:03:12.366Z,7.00
2018-04-16T01:05:45.546Z,5.97
2018-04-16T01:08:18.917Z,6.95
2018-04-16T01:10:52.004Z,6.80
2018-04-16T01:13:25.296Z,7.13
2018-04-16T01:19:11.186Z,6.87
2018-04-16T01:21:44.447Z,7.00
2018-04-16T01:24:21.252Z,8.87
2018-04-16T01:26:54.251Z,7.63
2018-04-16T01:29:27.287Z,7.03
2018-04-16T01:32:00.373Z,6.72
2018-04-16T01:34:33.587Z,6.18
2018-04-16T01:37:06.639Z,6.62
2018-04-16T01:39:43.628Z,6.57
2018-04-16T01:42:17.017Z,7.68
2018-04-16T01:44:50.065Z,7.30
2018-04-16T01:47:23.100Z,7.87
2018-04-16T01:49:56.248Z,7.27
2018-04-16T01:55:34.033Z,8.30
2018-04-16T01:58:10.904Z,9.37
2018-04-16T02:00:44.162Z,7.73
2018-04-16T02:03:18.121Z,7.00
2018-04-16T02:05:51.280Z,7.43
2018-04-16T02:08:24.661Z,7.40
2018-04-16T02:11:04.169Z,7.00
2018-04-16T02:13:37.731Z,7.28
2018-04-16T02:16:11.590Z,5.90
2018-04-16T02:18:44.747Z,6.43
2018-04-16T02:21:17.784Z,6.70
2018-04-16T02:23:50.849Z,6.03
2018-04-16T02:26:23.974Z,7.00
2018-04-16T02:28:57.049Z,6.80
2018-04-16T02:31:30.175Z,6.90
2018-04-16T02:34:03.264Z,6.10
2018-04-16T02:39:46.945Z,7.12
2018-04-16T02:42:20.156Z,7.70
2018-04-16T02:44:53.208Z,7.40
2018-04-16T02:47:26.340Z,7.03
2018-04-16T02:49:59.480Z,7.17
2018-04-16T02:52:32.663Z,6.97
2018-04-16T02:55:05.840Z,6.83
2018-04-16T02:57:39.623Z,6.57
2018-04-16T03:00:12.881Z,6.72
2018-04-16T03:02:45.989Z,6.68
2018-04-16T03:05:19.008Z,6.50
2018-04-16T03:07:51.989Z,6.73
2018-04-16T03:10:25.108Z,6.60
2018-04-16T03:12:58.145Z,8.07
2018-04-16T03:15:31.385Z,7.43
2018-04-16T03:18:04.496Z,6.13
2018-04-16T03:20:37.614Z,6.18
2018-04-16T03:23:10.705Z,7.87
2018-04-16T03:25:44.250Z,6.85
2018-04-16T03:31:16.224Z,7.43
2018-04-16T03:33:49.370Z,8.23
2018-04-16T03:36:22.396Z,7.60
2018-04-16T03:39:09.749Z,8.90
2018-04-16T03:41:42.830Z,7.07
2018-04-16T03:44:16.892Z,7.73
2018-04-16T03:46:50.256Z,7.32
2018-04-16T03:49:24.265Z,6.85
2018-04-16T03:55:07.097Z,7.90
2018-04-16T03:57:36.256Z,8.00
2018-04-16T04:00:03.764Z,7.90
2018-04-16T04:02:31.217Z,7.63
2018-04-16T04:04:58.678Z,8.65
2018-04-16T04:07:26.173Z,8.87
2018-04-16T04:09:53.666Z,8.05
2018-04-16T04:12:28.497Z,7.20
2018-04-16T04:14:55.967Z,7.53
2018-04-16T04:17:23.437Z,6.73
2018-04-16T04:19:51.188Z,7.77
2018-04-16T04:22:18.785Z,6.90
2018-04-16T04:24:58.103Z,7.20
2018-04-16T04:27:41.033Z,7.87
2018-04-16T04:30:17.675Z,7.17
2018-04-16T04:32:45.645Z,8.95
2018-04-16T04:35:13.869Z,6.60
2018-04-16T04:37:41.367Z,7.83
2018-04-16T04:40:10.516Z,8.20
2018-04-16T04:42:37.976Z,8.80
2018-04-16T04:45:17.473Z,8.20
2018-04-16T04:47:45.144Z,7.47
2018-04-16T04:50:12.603Z,9.90
2018-04-16T04:52:40.141Z,7.97
2018-04-16T04:55:07.593Z,7.22
2018-04-16T04:57:36.742Z,7.90
2018-04-16T05:00:07.834Z,7.43
2018-04-16T05:02:36.253Z,6.77
2018-04-16T05:05:03.701Z,7.30
2018-04-16T05:07:31.201Z,7.83
2018-04-16T05:09:58.691Z,8.47
2018-04-16T05:12:26.204Z,8.50
2018-04-16T05:14:53.702Z,8.60
2018-04-16T05:17:21.184Z,9.60
2018-04-16T05:19:50.382Z,8.38
2018-04-16T05:22:17.899Z,8.13
2018-04-16T05:24:45.386Z,7.30
2018-04-16T05:27:12.878Z,10.10
2018-04-16T05:29:40.385Z,9.27
2018-04-16T05:32:07.853Z,8.75
2018-04-16T05:34:35.551Z,9.18
2018-04-16T05:37:04.600Z,8.80
2018-04-16T05:39:32.085Z,9.37
2018-04-16T05:41:59.565Z,9.60
2018-04-16T05:44:30.652Z,10.00
2018-04-16T05:46:59.681Z,8.50
2018-04-16T05:49:27.144Z,10.50
2018-04-16T05:51:54.938Z,9.97
2018-04-16T05:54:23.379Z,8.90
2018-04-16T05:56:51.604Z,7.90
2018-04-16T05:59:23.133Z,9.70
2018-04-16T06:01:50.586Z,7.80
2018-04-16T06:04:18.429Z,7.15
2018-04-16T06:06:46.661Z,7.40
2018-04-16T06:09:14.165Z,8.13
2018-04-16T06:11:41.671Z,8.43
2018-04-16T06:14:19.926Z,7.87
2018-04-16T06:16:48.206Z,7.57
2018-04-16T06:19:16.526Z,7.57
2018-04-16T06:21:43.972Z,9.10
2018-04-16T06:24:11.457Z,8.53
2018-04-16T06:26:38.953Z,8.90
2018-04-16T06:29:06.922Z,8.83
2018-04-16T06:31:34.386Z,8.30
2018-04-16T06:34:01.881Z,9.03
2018-04-16T06:36:29.341Z,12.30
2018-04-16T06:38:57.775Z,9.10
2018-04-16T06:41:25.988Z,8.50
2018-04-16T06:43:53.493Z,10.20
2018-04-16T06:46:22.672Z,10.03
2018-04-16T06:48:50.364Z,9.20
2018-04-16T06:51:18.621Z,7.60
2018-04-16T06:53:46.109Z,7.70
2018-04-16T06:56:13.610Z,8.17
2018-04-16T06:58:41.883Z,10.00
2018-04-16T07:01:09.383Z,8.90
2018-04-16T07:03:36.884Z,8.00
2018-04-16T07:06:04.364Z,9.50
2018-04-16T07:08:31.900Z,8.50
2018-04-16T07:10:59.393Z,8.27
2018-04-16T07:13:26.888Z,9.03
2018-04-16T07:15:56.093Z,9.07
2018-04-16T07:18:23.528Z,10.50
2018-04-16T07:20:51.029Z,8.17
2018-04-16T07:23:18.508Z,9.57
2018-04-16T07:25:45.993Z,8.10
2018-04-16T07:28:13.425Z,9.93
2018-04-16T07:30:40.910Z,8.60
2018-04-16T07:33:09.302Z,8.43
2018-04-16T07:35:37.545Z,9.10
2018-04-16T07:38:05.055Z,7.28
2018-04-16T07:40:34.795Z,9.15
2018-04-16T07:43:02.595Z,7.80
2018-04-16T07:45:30.154Z,8.53
2018-04-16T07:47:58.592Z,8.02
2018-04-16T07:50:26.091Z,8.10
2018-04-16T07:52:53.547Z,7.37
2018-04-16T07:55:21.848Z,7.90
2018-04-16T07:57:49.314Z,8.03
2018-04-16T08:00:17.480Z,8.75
2018-04-16T08:02:50.339Z,9.20
2018-04-16T08:05:18.697Z,6.43
2018-04-16T08:07:46.181Z,7.12
2018-04-16T08:10:13.635Z,6.93
2018-04-16T08:12:41.126Z,7.00
2018-04-16T08:15:08.609Z,6.80
2018-04-16T08:17:36.119Z,6.70
2018-04-16T08:20:03.608Z,6.25
2018-04-16T08:22:32.021Z,7.05
2018-04-16T08:25:00.682Z,6.30
2018-04-16T08:27:28.392Z,6.40
2018-04-16T08:29:57.702Z,6.68
2018-04-16T08:32:25.202Z,6.03
2018-04-16T08:34:54.298Z,6.00
2018-04-16T08:37:21.800Z,6.30
2018-04-16T08:39:49.407Z,8.73
2018-04-16T08:42:16.916Z,5.62
2018-04-16T08:44:44.342Z,5.60
2018-04-16T08:47:18.759Z,5.53
2018-04-16T08:49:46.583Z,5.12
2018-04-16T08:52:14.802Z,5.40
2018-04-16T08:54:42.283Z,5.30
2018-04-16T08:57:09.753Z,4.35
2018-04-16T08:59:37.198Z,5.40
2018-04-16T09:02:09.447Z,5.87
2018-04-16T09:04:36.907Z,5.67
2018-04-16T09:07:04.505Z,5.95
2018-04-16T09:09:32.265Z,6.12
2018-04-16T09:12:00.508Z,5.72
2018-04-16T09:14:28.193Z,5.65
2018-04-16T09:16:55.686Z,5.40
2018-04-16T09:19:23.200Z,6.27
2018-04-16T09:21:50.729Z,6.20
2018-04-16T09:24:18.216Z,6.47
2018-04-16T09:26:45.657Z,5.90
2018-04-16T09:29:13.157Z,6.00
2018-04-16T09:31:40.681Z,16.90
2018-04-16T09:34:09.005Z,7.68
2018-04-16T09:36:36.518Z,6.23
2018-04-16T09:39:03.978Z,7.00
2018-04-16T09:41:31.446Z,6.37
2018-04-16T09:43:58.927Z,6.78
2018-04-16T09:46:26.389Z,7.37
2018-04-16T09:48:53.893Z,7.00
2018-04-16T09:51:21.363Z,8.40
2018-04-16T09:53:48.865Z,7.82
2018-04-16T09:56:16.928Z,7.57
2018-04-16T09:58:44.639Z,7.10
2018-04-16T10:01:17.816Z,7.80
2018-04-16T10:03:48.711Z,8.10
2018-04-16T10:06:16.178Z,8.50
2018-04-16T10:08:43.684Z,9.07
2018-04-16T10:11:11.149Z,8.37
2018-04-16T10:13:38.646Z,8.40
2018-04-16T10:16:07.152Z,8.15
2018-04-16T10:18:34.814Z,8.10
2018-04-16T10:21:02.307Z,9.73
2018-04-16T10:23:30.734Z,8.53
2018-04-16T10:25:58.220Z,8.13
2018-04-16T10:28:26.517Z,9.52
2018-04-16T10:30:53.979Z,8.53
2018-04-16T10:33:21.427Z,8.43
2018-04-16T10:35:48.893Z,9.27
2018-04-16T10:38:16.377Z,8.30
2018-04-16T10:40:43.858Z,11.90
2018-04-16T10:43:11.343Z,7.47
2018-04-16T10:45:39.729Z,8.80
2018-04-16T10:48:07.228Z,10.17
2018-04-16T10:50:34.707Z,8.18
2018-04-16T10:53:02.256Z,9.00
2018-04-16T10:55:29.717Z,7.72
2018-04-16T10:57:57.306Z,7.63
2018-04-16T11:00:24.779Z,7.20
2018-04-16T11:02:52.274Z,7.00
2018-04-16T11:05:20.016Z,7.25
2018-04-16T11:07:48.371Z,8.27
2018-04-16T11:10:15.827Z,6.70
2018-04-16T11:12:43.414Z,7.32
2018-04-16T11:15:10.886Z,7.15
2018-04-16T11:17:38.446Z,7.30
2018-04-16T11:20:05.944Z,6.60
2018-04-16T11:22:33.473Z,6.70
2018-04-16T11:25:01.855Z,7.30
2018-04-16T11:27:29.340Z,7.30
2018-04-16T11:29:57.570Z,6.90
2018-04-16T11:32:25.050Z,7.37
2018-04-16T11:34:52.547Z,7.17
2018-04-16T11:37:20.748Z,7.28
2018-04-16T11:39:48.305Z,6.57
2018-04-16T11:42:15.818Z,6.40
2018-04-16T11:44:43.282Z,9.02
2018-04-16T11:47:11.518Z,8.00
2018-04-16T11:49:38.987Z,8.43
2018-04-16T11:52:09.513Z,7.20
2018-04-16T11:54:37.133Z,8.65
2018-04-16T11:57:04.721Z,8.50
2018-04-16T11:59:32.178Z,6.90
2018-04-16T12:02:00.661Z,9.00
2018-04-16T12:04:28.269Z,8.73
2018-04-16T12:06:55.648Z,9.40
2018-04-16T12:09:24.921Z,8.10
2018-04-16T12:11:52.413Z,8.35
2018-04-16T12:14:19.905Z,8.10
2018-04-16T12:16:47.375Z,9.67
2018-04-16T12:19:14.867Z,9.30
2018-04-16T12:21:43.070Z,9.97
2018-04-16T12:24:10.738Z,10.00
2018-04-16T12:26:38.200Z,9.70
2018-04-16T12:29:05.681Z,10.47
2018-04-16T12:31:33.148Z,8.93
2018-04-16T12:34:00.635Z,10.80
2018-04-16T12:36:28.121Z,10.00
2018-04-16T12:38:55.594Z,11.17
2018-04-16T12:41:23.061Z,9.50
2018-04-16T12:43:50.549Z,10.05
2018-04-16T12:46:18.795Z,9.73
2018-04-16T12:48:46.305Z,10.83
2018-04-16T12:51:13.807Z,9.40
2018-04-16T12:53:42.111Z,10.20
2018-04-16T12:56:10.320Z,9.68
2018-04-16T12:58:37.810Z,11.45
2018-04-16T13:01:05.307Z,10.37
2018-04-16T13:03:33.570Z,9.30
2018-04-16T13:06:04.994Z,10.10
2018-04-16T13:08:32.466Z,9.70
2018-04-16T13:10:59.977Z,9.23
2018-04-16T13:13:28.322Z,10.37
2018-04-16T13:15:56.568Z,10.13
2018-04-16T13:18:24.974Z,9.50
2018-04-16T13:20:53.217Z,9.07
2018-04-16T13:23:20.705Z,9.30
2018-04-16T13:25:48.248Z,8.27
2018-04-16T13:28:16.488Z,7.95
2018-04-16T13:30:43.945Z,8.90
2018-04-16T13:33:11.416Z,8.07
2018-04-16T13:35:38.905Z,9.60
2018-04-16T13:38:06.399Z,7.70
2018-04-16T13:40:34.238Z,8.93
2018-04-16T13:43:01.817Z,9.57
2018-04-16T13:45:30.048Z,8.23
2018-04-16T13:47:57.776Z,6.80
2018-04-16T13:50:25.249Z,7.47
2018-04-16T13:52:52.760Z,6.82
2018-04-16T13:55:20.248Z,6.55
2018-04-16T13:57:47.727Z,5.22
2018-04-16T14:00:15.538Z,5.93
2018-04-16T14:02:43.033Z,6.25
2018-04-16T14:05:11.205Z,5.90
2018-04-16T14:07:38.704Z,5.80
2018-04-16T14:10:06.169Z,6.20
2018-04-16T14:12:34.706Z,7.15
2018-04-16T14:15:02.209Z,6.13
2018-04-16T14:17:30.245Z,5.68
2018-04-16T14:19:57.727Z,5.75
2018-04-16T14:22:29.862Z,5.73
2018-04-16T14:24:57.340Z,5.55
2018-04-16T14:27:25.133Z,5.18
2018-04-16T14:29:52.651Z,5.63
2018-04-16T14:32:20.227Z,6.10
2018-04-16T14:34:47.689Z,5.07
2018-04-16T14:37:15.207Z,4.80
2018-04-16T14:39:42.722Z,5.78
2018-04-16T14:42:10.995Z,5.33
2018-04-16T14:44:39.423Z,4.80
2018-04-16T14:47:06.888Z,4.80
2018-04-16T14:49:34.431Z,4.53
2018-04-16T14:52:01.945Z,5.40
2018-04-16T14:54:30.417Z,5.50
2018-04-16T14:56:58.297Z,7.00
2018-04-16T14:59:25.810Z,4.93
2018-04-16T15:01:53.289Z,5.47
2018-04-16T15:04:23.216Z,5.37
2018-04-16T15:06:52.413Z,5.87
2018-04-16T15:09:20.075Z,6.00
2018-04-16T15:11:48.590Z,7.22
2018-04-16T15:14:16.080Z,8.33
2018-04-16T15:16:43.615Z,7.70
2018-04-16T15:19:11.135Z,5.80
2018-04-16T15:21:38.638Z,8.10
2018-04-16T15:24:06.097Z,6.70
2018-04-16T15:26:33.597Z,6.20
2018-04-16T15:29:01.603Z,6.03
2018-04-16T15:31:29.245Z,5.40
2018-04-16T15:33:57.558Z,6.90
2018-04-16T15:36:25.001Z,7.63
2018-04-16T15:38:52.542Z,8.37
2018-04-16T15:41:20.620Z,7.30
2018-04-16T15:43:48.226Z,8.52
2018-04-16T15:46:15.704Z,8.47
2018-04-16T15:48:43.193Z,7.57
2018-04-16T15:51:11.409Z,7.00
2018-04-16T15:53:46.367Z,6.10
2018-04-16T15:56:14.053Z,5.90
2018-04-16T15:58:41.584Z,7.13
2018-04-16T16:01:09.073Z,7.87
2018-04-16T16:03:36.563Z,6.97
2018-04-16T16:06:04.025Z,4.30
2018-04-16T16:08:31.481Z,3.50
2018-04-16T16:10:59.706Z,2.30
2018-04-16T16:13:27.210Z,2.10
2018-04-16T16:15:54.817Z,1.80
2018-04-16T16:18:22.496Z,1.60
2018-04-16T16:20:49.993Z,1.40
2018-04-16T16:23:19.165Z,2.10
2018-04-16T16:25:46.659Z,1.77
2018-04-16T16:28:14.181Z,1.58
2018-04-16T16:30:41.666Z,1.70
2018-04-16T16:33:09.185Z,1.17
2018-04-16T16:35:36.701Z,1.47
2018-04-16T16:38:04.154Z,1.45
2018-04-16T16:40:35.545Z,1.30
2018-04-16T16:43:02.993Z,1.10
2018-04-16T16:45:30.477Z,1.10
2018-04-16T16:47:58.706Z,1.10
2018-04-16T16:50:26.259Z,1.43
2018-04-16T16:52:53.717Z,1.25
2018-04-16T16:55:24.923Z,1.42
2018-04-16T16:57:53.737Z,1.20
2018-04-16T17:00:21.234Z,1.13
2018-04-16T17:02:49.078Z,1.95
2018-04-16T17:05:16.898Z,1.30
2018-04-16T17:07:44.542Z,1.60
2018-04-16T17:10:15.062Z,1.60
2018-04-16T17:12:43.048Z,1.50
2018-04-16T17:15:10.532Z,1.40
2018-04-16T17:17:38.018Z,1.60
2018-04-16T17:20:06.464Z,2.20
2018-04-16T17:22:34.668Z,2.70
2018-04-16T17:25:02.173Z,2.67
2018-04-16T17:27:31.335Z,3.10
2018-04-16T17:29:58.801Z,3.17
2018-04-16T17:32:26.297Z,3.33
2018-04-16T17:34:53.747Z,3.47
2018-04-16T17:37:21.272Z,4.10
2018-04-16T17:39:49.116Z,5.10
2018-04-16T17:42:16.643Z,4.10
2018-04-16T17:44:44.715Z,6.05
2018-04-16T17:47:12.197Z,6.13
2018-04-16T17:49:39.691Z,5.97
2018-04-16T17:52:07.184Z,4.77
2018-04-16T17:54:35.825Z,4.83
2018-04-16T17:57:05.430Z,4.94
2018-04-16T17:59:32.922Z,4.60
2018-04-16T18:02:00.392Z,4.37
2018-04-16T18:04:28.775Z,4.50
2018-04-16T18:06:56.316Z,5.70
2018-04-16T18:09:24.583Z,4.60
2018-04-16T18:11:55.806Z,4.90
2018-04-16T18:14:24.709Z,5.70
2018-04-16T18:16:54.081Z,4.93
2018-04-16T18:19:21.551Z,6.40
2018-04-16T18:21:49.008Z,5.63
2018-04-16T18:24:16.563Z,6.10
2018-04-16T18:26:44.100Z,5.78
2018-04-16T18:29:15.072Z,6.30
2018-04-16T18:31:43.482Z,4.68
2018-04-16T18:34:10.971Z,5.90
2018-04-16T18:36:38.882Z,6.53
2018-04-16T18:39:06.333Z,5.50
2018-04-16T18:41:37.721Z,6.23
2018-04-16T18:44:05.468Z,5.60
2018-04-16T18:46:33.128Z,6.10
2018-04-16T18:49:00.605Z,5.30
2018-04-16T18:51:28.834Z,5.03
2018-04-16T18:53:56.329Z,5.47
2018-04-16T18:56:23.775Z,6.47
2018-04-16T18:58:52.152Z,5.37
2018-04-16T19:01:19.628Z,7.50
2018-04-16T19:03:47.095Z,6.93
2018-04-16T19:06:14.929Z,7.53
2018-04-16T19:08:42.403Z,6.55
2018-04-16T19:11:11.554Z,8.07
2018-04-16T19:13:39.052Z,7.63
2018-04-16T19:16:06.557Z,12.33
2018-04-16T19:18:34.374Z,10.10
2018-04-16T19:21:07.419Z,8.07
2018-04-16T19:23:34.960Z,10.10
2018-04-16T19:26:02.445Z,9.53
2018-04-16T19:28:30.085Z,8.60
2018-04-16T19:30:57.636Z,8.57
2018-04-16T19:33:31.397Z,10.48
2018-04-16T19:35:58.858Z,7.90
2018-04-16T19:38:26.418Z,9.63
2018-04-16T19:41:01.365Z,7.95
2018-04-16T19:43:29.634Z,8.45
2018-04-16T19:45:57.605Z,8.03
2018-04-16T19:48:25.122Z,9.00
2018-04-16T19:50:52.617Z,8.47
2018-04-16T19:53:20.130Z,6.93
2018-04-16T19:58:55.028Z,6.62
2018-04-16T20:01:22.485Z,5.23
2018-04-16T20:03:55.493Z,5.30
2018-04-16T20:06:22.944Z,6.10
2018-04-16T20:08:50.437Z,5.87
2018-04-16T20:11:17.896Z,6.57
2018-04-16T20:13:45.429Z,6.60
2018-04-16T20:16:12.928Z,7.97
2018-04-16T20:18:40.402Z,10.27
2018-04-16T20:21:07.859Z,6.40
2018-04-16T20:23:35.341Z,5.47
2018-04-16T20:26:02.908Z,6.93
2018-04-16T20:28:31.279Z,7.40
2018-04-16T20:30:58.769Z,6.90
2018-04-16T20:33:26.235Z,7.60
2018-04-16T20:35:53.702Z,8.10
2018-04-16T20:38:21.401Z,7.63
2018-04-16T20:40:48.956Z,7.20
2018-04-16T20:43:16.515Z,6.70
2018-04-16T20:45:45.392Z,6.32
2018-04-16T20:48:12.878Z,6.55
2018-04-16T20:50:40.367Z,7.40
2018-04-16T20:53:07.850Z,6.97
2018-04-16T20:55:35.342Z,6.27
2018-04-16T20:58:02.847Z,6.78
2018-04-16T21:00:30.346Z,5.05
2018-04-16T21:02:59.466Z,7.37
2018-04-16T21:05:27.000Z,6.93
2018-04-16T21:10:27.477Z,6.77
2018-04-16T21:12:55.149Z,6.80
2018-04-16T21:15:22.663Z,6.80
2018-04-16T21:17:50.985Z,6.65
2018-04-16T21:20:18.573Z,9.67
2018-04-16T21:22:46.196Z,8.20
2018-04-16T21:25:13.718Z,7.70
2018-04-16T21:27:41.480Z,7.53
2018-04-16T21:30:12.084Z,8.03
2018-04-16T21:32:39.638Z,7.30
2018-04-16T21:35:07.861Z,8.20
2018-04-16T21:37:35.408Z,7.93
2018-04-16T21:40:03.366Z,7.57
2018-04-16T21:42:30.988Z,7.43
2018-04-16T21:44:58.502Z,7.97
2018-04-16T21:47:26.965Z,7.33
2018-04-16T21:49:54.509Z,10.00
2018-04-16T21:52:22.276Z,9.00
2018-04-16T21:54:50.026Z,8.10
2018-04-16T21:57:17.548Z,9.33
2018-04-16T21:59:56.938Z,9.40
2018-04-16T22:02:24.456Z,8.23
2018-04-16T22:04:52.809Z,9.06
2018-04-16T22:07:20.381Z,8.20
2018-04-16T22:09:48.004Z,10.13
2018-04-16T22:12:15.537Z,9.27
2018-04-16T22:14:43.080Z,8.37
2018-04-16T22:17:10.582Z,9.60
2018-04-16T22:19:38.370Z,9.50
2018-04-16T22:22:06.346Z,9.00
2018-04-16T22:24:34.792Z,10.27
2018-04-16T22:27:02.358Z,9.87
2018-04-16T22:29:29.900Z,8.37
2018-04-16T22:31:57.411Z,9.90
2018-04-16T22:34:26.653Z,10.07
2018-04-16T22:36:54.171Z,9.80
2018-04-16T22:39:21.728Z,10.27
2018-04-16T22:41:50.925Z,9.30
2018-04-16T22:44:18.423Z,10.00
2018-04-16T22:46:45.951Z,9.40
2018-04-16T22:49:15.164Z,9.23
2018-04-16T22:51:42.730Z,10.53
2018-04-16T22:54:10.253Z,10.10
2018-04-16T22:56:37.790Z,9.88
2018-04-16T22:59:05.301Z,9.50
2018-04-16T23:01:36.002Z,8.93
2018-04-16T23:04:03.509Z,10.07
2018-04-16T23:06:31.054Z,11.00
2018-04-16T23:08:59.397Z,10.65
2018-04-16T23:11:26.901Z,8.90
2018-04-16T23:13:54.492Z,10.13
2018-04-16T23:16:26.279Z,11.27
2018-04-16T23:18:54.254Z,10.45
2018-04-16T23:21:22.548Z,9.70
2018-04-16T23:23:50.077Z,11.43
2018-04-16T23:26:17.629Z,10.43
2018-04-16T23:28:45.143Z,11.48
2018-04-16T23:31:13.160Z,12.00
2018-04-16T23:33:44.638Z,11.20
2018-04-16T23:36:13.861Z,10.47
2018-04-16T23:38:41.401Z,11.70
2018-04-16T23:41:08.912Z,11.47
2018-04-16T23:43:36.448Z,12.40
2018-04-16T23:46:03.981Z,11.83
2018-04-16T23:48:32.453Z,13.03
2018-04-16T23:51:00.036Z,10.87
2018-04-16T23:53:27.664Z,11.53
2018-04-16T23:55:55.196Z,10.98
2018-04-16T23:58:22.724Z,10.63
